Weather History for Holdrege, NE

Change the Weather History Date:

Thursday, October 17, 2013

  Actual Average Record
Temperature  
Mean Temperature 43 °F -  
Max Temperature 53 °F 63 °F 87 °F (1991)
Min Temperature 33 °F 39 °F 20 °F (1948)
Degree Days  
Heating Degree Days 22    
Moisture  
Dew Point 33 °F    
Average Humidity 70    
Maximum Humidity 85    
Minimum Humidity 55    
Precipitation  
Precipitation 0.00 in - - ()
Sea Level Pressure  
Sea Level Pressure 30.01 in    
Wind  
Wind Speed 9 mph (NW)    
Max Wind Speed 21 mph    
Max Gust Speed 26 mph    
Visibility 10 miles    
Events      
Averages and records for this station are not official NWS values.
T = Trace of Precipitation, MM = Missing Value Source: NWS Daily Summary

Daily Weather History Graph

Daily Weather History Graph

Search for Another Location

Airport:

Trip Planner

Search our weather history database for the weather conditions in past years. The results will help you decide how hot, cold, wet, or windy it might be!

Date:

Astronomy

Oct. 17, 2013 Rise Set
Actual Time 7:50 AM CDT 6:53 PM CDT
Civil Twilight 7:23 AM CDT 7:21 PM CDT
Nautical Twilight 6:51 AM CDT 7:53 PM CDT
Astronomical Twilight 6:19 AM CDT 8:24 PM CDT
Moon 6:09 PM CDT (10/17) 6:24 AM CDT (10/17)
Length of Visible Light 11h 58m
Length of Day
11h 03m
Waxing Gibbous, 98% of the Moon is Illuminated
Oct 17
Waxing Gibbous
Oct 18
Full
Oct 26
Last Quarter
Nov 3
New
Nov 9
First Quarter

Hourly Weather History & Observations

Time (CDT) Temp. Windchill Dew Point Humidity Pressure Visibility Wind Dir Wind Speed Gust Speed Precip Events Conditions
12:15 AM 42.3 °F 37.9 °F 32.0 °F 67% 29.97 in 10.0 mi SSW 6.9 mph - N/A   Clear
12:35 AM 41.5 °F 36.4 °F 31.8 °F 68% 29.96 in 10.0 mi SSW 8.1 mph - N/A   Clear
12:55 AM 41.0 °F 35.8 °F 31.6 °F 69% 29.96 in 10.0 mi SSW 8.1 mph - N/A   Clear
1:15 AM 40.8 °F 36.9 °F 31.8 °F 70% 29.95 in 10.0 mi SSW 5.8 mph - N/A   Clear
1:35 AM 40.5 °F 35.8 °F 32.2 °F 72% 29.95 in 10.0 mi SW 6.9 mph - N/A   Clear
1:55 AM 41.0 °F 37.1 °F 32.5 °F 72% 29.95 in 10.0 mi SW 5.8 mph - N/A   Clear
2:15 AM 39.7 °F 35.6 °F 32.2 °F 74% 29.94 in 10.0 mi SW 5.8 mph - N/A   Clear
2:35 AM 39.6 °F 37.4 °F 32.9 °F 77% 29.94 in 10.0 mi WSW 3.5 mph - N/A   Clear
2:55 AM 39.2 °F 37.0 °F 33.1 °F 79% 29.94 in 10.0 mi WSW 3.5 mph - N/A   Clear
3:15 AM 39.2 °F 35.9 °F 32.9 °F 78% 29.93 in 10.0 mi WSW 4.6 mph - N/A   Clear
3:35 AM 37.8 °F 34.2 °F 32.2 °F 80% 29.93 in 10.0 mi WSW 4.6 mph - N/A   Clear
3:55 AM 37.6 °F 34.0 °F 32.0 °F 80% 29.92 in 10.0 mi West 4.6 mph - N/A   Clear
4:15 AM 37.0 °F 33.3 °F 32.0 °F 82% 29.93 in 10.0 mi West 4.6 mph - N/A   Clear
4:35 AM 35.8 °F 30.9 °F 31.6 °F 85% 29.93 in 10.0 mi West 5.8 mph - N/A   Clear
4:55 AM 37.0 °F 31.0 °F 32.0 °F 82% 29.93 in 10.0 mi West 8.1 mph - N/A   Clear
5:15 AM 36.0 °F 30.3 °F 31.5 °F 84% 29.93 in 10.0 mi West 6.9 mph - N/A   Clear
5:35 AM 35.1 °F 30.1 °F 30.7 °F 84% 29.94 in 10.0 mi West 5.8 mph - N/A   Clear
5:55 AM 34.3 °F 28.4 °F 30.2 °F 85% 29.94 in 10.0 mi West 6.9 mph - N/A   Clear
6:15 AM 36.1 °F 29.9 °F 30.9 °F 81% 29.94 in 10.0 mi WNW 8.1 mph - N/A   Clear
6:35 AM 35.1 °F 28.6 °F 30.0 °F 82% 29.94 in 10.0 mi WNW 8.1 mph - N/A   Clear
6:55 AM 33.6 °F 28.4 °F 29.7 °F 85% 29.95 in 10.0 mi WNW 5.8 mph - N/A   Clear
7:15 AM 33.6 °F 28.4 °F 29.7 °F 85% 29.95 in 10.0 mi WNW 5.8 mph - N/A   Clear
7:35 AM 33.8 °F 27.0 °F 29.8 °F 85% 29.97 in 10.0 mi WNW 8.1 mph - N/A   Clear
7:55 AM 34.5 °F 27.3 °F 29.8 °F 83% 29.97 in 10.0 mi WNW 9.2 mph - N/A   Clear
8:15 AM 35.8 °F 29.4 °F 30.2 °F 80% 29.98 in 10.0 mi WNW 8.1 mph - N/A   Clear
8:35 AM 37.2 °F 31.2 °F 30.6 °F 77% 29.98 in 10.0 mi WNW 8.1 mph - N/A   Clear
8:55 AM 38.1 °F 31.7 °F 31.6 °F 77% 29.99 in 10.0 mi NW 9.2 mph - N/A   Clear
9:15 AM 39.7 °F 34.3 °F 32.2 °F 74% 29.99 in 10.0 mi NW 8.1 mph - N/A   Clear
9:35 AM 41.5 °F 34.6 °F 32.5 °F 70% 30.00 in 10.0 mi NW 12.7 mph - N/A   Clear
9:55 AM 42.3 °F 35.1 °F 33.3 °F 70% 30.01 in 10.0 mi NW 13.8 mph 18.4 mph N/A   Clear
10:15 AM 43.7 °F 38.1 °F 34.5 °F 70% 30.01 in 10.0 mi NW 10.4 mph 18.4 mph N/A   Clear
10:35 AM 44.6 °F 38.8 °F 34.9 °F 69% 30.02 in 10.0 mi NW 11.5 mph 18.4 mph N/A   Clear
10:55 AM 45.5 °F 38.9 °F 36.0 °F 69% 30.02 in 10.0 mi NW 15.0 mph 19.6 mph N/A   Clear
11:15 AM 47.5 °F - 36.0 °F 64% 30.03 in 10.0 mi NW 13.8 mph 20.7 mph N/A   Clear
11:35 AM 48.9 °F - 37.2 °F 64% 30.03 in 10.0 mi NNW 15.0 mph 21.9 mph N/A   Clear
11:55 AM 49.6 °F - 37.4 °F 63% 30.04 in 10.0 mi NNW 13.8 mph 23.0 mph N/A   Clear
12:15 PM 49.8 °F - 37.4 °F 62% 30.04 in 10.0 mi NW 13.8 mph 20.7 mph N/A   Clear
12:35 PM 50.4 °F - 37.9 °F 62% 30.04 in 10.0 mi NNW 12.7 mph 19.6 mph N/A   Clear
12:55 PM 52.9 °F - 38.3 °F 58% 30.03 in 10.0 mi NW 17.3 mph 20.7 mph N/A   Clear
1:15 PM 53.4 °F - 37.6 °F 55% 30.03 in 10.0 mi NNW 16.1 mph 24.2 mph N/A   Clear
1:35 PM 52.9 °F - 36.9 °F 55% 30.03 in 10.0 mi NNW 15.0 mph 25.3 mph N/A   Clear
1:55 PM 52.0 °F - 36.5 °F 56% 30.03 in 10.0 mi NNW 16.1 mph 24.2 mph N/A   Clear
2:15 PM 51.1 °F - 36.5 °F 57% 30.02 in 10.0 mi NNW 15.0 mph 21.9 mph N/A   Scattered Clouds
2:35 PM 52.2 °F - 36.7 °F 56% 30.02 in 10.0 mi NNW 17.3 mph 24.2 mph N/A   Scattered Clouds
2:55 PM 51.4 °F - 36.1 °F 56% 30.02 in 10.0 mi NNW 20.7 mph 26.5 mph N/A   Mostly Cloudy
3:15 PM 50.9 °F - 36.0 °F 57% 30.02 in 10.0 mi North 13.8 mph 25.3 mph N/A   Scattered Clouds
3:35 PM 50.2 °F - 35.6 °F 57% 30.02 in 10.0 mi North 15.0 mph 24.2 mph N/A   Mostly Cloudy
3:55 PM 50.7 °F - 36.1 °F 57% 30.02 in 10.0 mi North 20.7 mph - N/A   Mostly Cloudy
4:15 PM 49.3 °F - 34.5 °F 57% 30.04 in 10.0 mi North 15.0 mph 24.2 mph N/A   Mostly Cloudy
4:35 PM 48.4 °F - 34.3 °F 58% 30.04 in 10.0 mi North 13.8 mph 23.0 mph N/A   Overcast
4:55 PM 48.2 °F - 34.2 °F 58% 30.04 in 10.0 mi North 13.8 mph 17.3 mph N/A   Overcast
5:15 PM 48.6 °F - 33.1 °F 55% 30.04 in 10.0 mi NNW 11.5 mph 17.3 mph N/A   Overcast
5:35 PM 48.4 °F - 33.3 °F 56% 30.04 in 10.0 mi North 13.8 mph 20.7 mph N/A   Mostly Cloudy
5:55 PM 48.4 °F - 33.3 °F 56% 30.04 in 10.0 mi NNW 13.8 mph 19.6 mph N/A   Mostly Cloudy
6:15 PM 46.9 °F - 32.5 °F 57% 30.05 in 10.0 mi North 11.5 mph 17.3 mph N/A   Scattered Clouds
6:35 PM 46.0 °F 41.0 °F 32.0 °F 58% 30.06 in 10.0 mi North 10.4 mph - N/A   Clear
6:55 PM 44.6 °F 40.7 °F 32.5 °F 63% 30.06 in 10.0 mi North 6.9 mph - N/A   Scattered Clouds
7:15 PM 43.0 °F 38.8 °F 32.2 °F 66% 30.06 in 10.0 mi North 6.9 mph - N/A   Scattered Clouds
7:35 PM 41.0 °F 35.8 °F 32.0 °F 70% 30.07 in 10.0 mi North 8.1 mph - N/A   Clear
7:55 PM 41.9 °F 38.2 °F 32.0 °F 68% 30.07 in 10.0 mi North 5.8 mph - N/A   Clear
8:15 PM 39.2 °F 35.0 °F 32.0 °F 75% 30.08 in 10.0 mi North 5.8 mph - N/A   Clear
8:35 PM 40.5 °F 34.1 °F 31.6 °F 71% 30.08 in 10.0 mi North 10.4 mph - N/A   Clear
8:55 PM 40.6 °F 35.4 °F 30.7 °F 68% 30.09 in 10.0 mi North 8.1 mph - N/A   Clear
9:15 PM 38.8 °F 31.6 °F 30.4 °F 72% 30.11 in 10.0 mi North 11.5 mph - N/A   Clear
9:35 PM 38.3 °F 31.4 °F 30.0 °F 72% 30.12 in 10.0 mi North 10.4 mph - N/A   Clear
9:55 PM 37.0 °F 31.6 °F 29.3 °F 74% 30.13 in 10.0 mi North 6.9 mph - N/A   Clear
10:15 PM 36.7 °F 31.2 °F 29.3 °F 75% 30.13 in 10.0 mi North 6.9 mph - N/A   Clear
10:35 PM 35.8 °F 29.4 °F 28.9 °F 76% 30.12 in 10.0 mi North 8.1 mph - N/A   Clear
10:55 PM 33.6 °F 29.4 °F 28.4 °F 81% 30.12 in 10.0 mi North 4.6 mph - N/A   Clear
11:15 PM 34.3 °F 30.2 °F 28.4 °F 79% 30.12 in 10.0 mi North 4.6 mph - N/A   Clear
11:35 PM 34.2 °F 29.0 °F 28.2 °F 79% 30.12 in 10.0 mi North 5.8 mph - N/A   Clear
11:55 PM 33.4 °F 30.4 °F 28.2 °F 81% 30.13 in 10.0 mi NW 3.5 mph - N/A   Clear